Masonic Home, Kentucky
Current Conditions -  °F | °C
As of 2:56 PM on Thursday 30 Oct 2014 (Local Time) from KSDF Reporting Station
Scattered Clouds Scattered Clouds  
Wind Chill: 57°   Ceiling: Unl
Heat Index: 57°   Visibility: 10mi
Dew Point: 35°   Wind: 6mph
Humidity: 44%   Direction: NA
Pressure: 30.1"   Gusts: NA
Location:  38.25°N, 85.76°W
Report Text: KSDF 301856Z VRB05KT 10SM SCT250 14/02 A3010 RMK AO2 SLP192 T01390017
Loading
Personal Weather Stations






























Interactive Weather Map
Tropical Storm Tracking
New forecast layout! Learn more

10-Day Weather Forecast

Advertisements
Track Severe Weather on mobile